TA73 weather

Barclay's Roost Airport
Kerrville, Texas, United States

Public forecast

Using degrees Fahrenheit for public forecast. Weather courtesy of forecast.io.

Closest aviation weather report (METAR) to Barclay's Roost Airport

Closest report is Kerrville Municipal Louis Schreiner Field, 4.3 nm (8.0 km) E. Retrieved 2019/10/22 21:35 UTC (0 seconds ago):

KERV 222135Z AUTO 00000KT 10SM CLR 28/M07 A3013 RMK AO2 T02751075

Closest aviation forecast (TAF) to Barclay's Roost Airport

Closest forecast is Kimble County Airport, 44.6 nm (82.6 km) NW. Retrieved 2019/10/22 18:48 UTC (2 hours ago):

TAF KJCT 221745Z 2218/2318 15007KT P6SM SKC FM230100 VRB03KT P6SM SKC FM231400 19014G24KT P6SM SKC